Tanggu, China
Current Conditions -  °F | °C
As of 11:00 AM on Tuesday 23 Dec 2014 (Local Time) from ZBTJ Reporting Station
Haze Haze  
Wind Chill: 34°   Ceiling: Unl
Heat Index: 39°   Visibility: 3mi
Dew Point: 16°   Wind: 7mph
Humidity: 39%   Direction: 230°SW
Pressure: 30.15"   Gusts: NA
Location:  39°N, 117.67°E
Report Text: ZBTJ 230300Z 23003MPS 5000 HZ NSC 04/M09 Q1021 NOSIG
Loading
Personal Weather Stations






























Interactive Weather Map New forecast layout! Learn more

10-Day Weather Forecast

Advertisements
Track Severe Weather on mobile